sensor_id;sensor_type;location;lat;lon;timestamp;P1;P2;P0
78063;PMS5003;67429;51.596;-3.264;2023-06-19T00:01:13;48;46;
78063;PMS5003;67429;51.596;-3.264;2023-06-19T00:03:38;50;49;
78063;PMS5003;67429;51.596;-3.264;2023-06-19T00:06:04;48;46;
78063;PMS5003;67429;51.596;-3.264;2023-06-19T00:08:29;49;49;
78063;PMS5003;67429;51.596;-3.264;2023-06-19T00:10:54;46;45;
78063;PMS5003;67429;51.596;-3.264;2023-06-19T00:13:19;49;48;
78063;PMS5003;67429;51.596;-3.264;2023-06-19T00:15:45;48;47;
78063;PMS5003;67429;51.596;-3.264;2023-06-19T00:18:10;46;45;
78063;PMS5003;67429;51.596;-3.264;2023-06-19T00:20:35;42;40;
78063;PMS5003;67429;51.596;-3.264;2023-06-19T00:23:01;45;44;
78063;PMS5003;67429;51.596;-3.264;2023-06-19T00:25:27;44;41;
78063;PMS5003;67429;51.596;-3.264;2023-06-19T00:27:52;51;49;
78063;PMS5003;67429;51.596;-3.264;2023-06-19T00:30:18;51;50;
78063;PMS5003;67429;51.596;-3.264;2023-06-19T00:32:43;49;47;
78063;PMS5003;67429;51.596;-3.264;2023-06-19T00:35:08;47;46;
78063;PMS5003;67429;51.596;-3.264;2023-06-19T00:37:34;46;44;
78063;PMS5003;67429;51.596;-3.264;2023-06-19T00:39:59;46;44;
78063;PMS5003;67429;51.596;-3.264;2023-06-19T00:42:25;46;43;
78063;PMS5003;67429;51.596;-3.264;2023-06-19T00:44:51;56;53;
78063;PMS5003;67429;51.596;-3.264;2023-06-19T00:47:16;43;43;
78063;PMS5003;67429;51.596;-3.264;2023-06-19T00:49:41;50;49;
78063;PMS5003;67429;51.596;-3.264;2023-06-19T00:52:07;45;44;
78063;PMS5003;67429;51.596;-3.264;2023-06-19T00:54:33;46;43;
78063;PMS5003;67429;51.596;-3.264;2023-06-19T00:56:58;49;46;
78063;PMS5003;67429;51.596;-3.264;2023-06-19T00:59:24;44;44;
78063;PMS5003;67429;51.596;-3.264;2023-06-19T01:01:49;46;44;
78063;PMS5003;67429;51.596;-3.264;2023-06-19T01:04:15;32;30;
78063;PMS5003;67429;51.596;-3.264;2023-06-19T01:06:42;35;33;
78063;PMS5003;67429;51.596;-3.264;2023-06-19T01:09:05;30;30;
78063;PMS5003;67429;51.596;-3.264;2023-06-19T01:11:31;28;25;
78063;PMS5003;67429;51.596;-3.264;2023-06-19T01:13:58;23;21;
78063;PMS5003;67429;51.596;-3.264;2023-06-19T01:16:22;23;23;
78063;PMS5003;67429;51.596;-3.264;2023-06-19T01:18:48;29;28;
78063;PMS5003;67429;51.596;-3.264;2023-06-19T01:21:14;27;25;
78063;PMS5003;67429;51.596;-3.264;2023-06-19T01:23:39;29;28;
78063;PMS5003;67429;51.596;-3.264;2023-06-19T01:26:04;43;41;
78063;PMS5003;67429;51.596;-3.264;2023-06-19T01:28:29;37;37;
78063;PMS5003;67429;51.596;-3.264;2023-06-19T01:30:54;41;40;
78063;PMS5003;67429;51.596;-3.264;2023-06-19T01:33:20;41;40;
78063;PMS5003;67429;51.596;-3.264;2023-06-19T01:35:46;35;34;
78063;PMS5003;67429;51.596;-3.264;2023-06-19T01:38:11;36;35;
78063;PMS5003;67429;51.596;-3.264;2023-06-19T01:40:36;31;30;
78063;PMS5003;67429;51.596;-3.264;2023-06-19T01:43:02;25;25;
78063;PMS5003;67429;51.596;-3.264;2023-06-19T01:45:28;24;24;
78063;PMS5003;67429;51.596;-3.264;2023-06-19T01:47:53;31;30;
78063;PMS5003;67429;51.596;-3.264;2023-06-19T01:50:19;24;24;
78063;PMS5003;67429;51.596;-3.264;2023-06-19T01:52:44;22;21;
78063;PMS5003;67429;51.596;-3.264;2023-06-19T01:55:09;20;19;
78063;PMS5003;67429;51.596;-3.264;2023-06-19T01:57:35;23;21;
78063;PMS5003;67429;51.596;-3.264;2023-06-19T02:00:01;21;20;
78063;PMS5003;67429;51.596;-3.264;2023-06-19T02:02:26;24;22;
78063;PMS5003;67429;51.596;-3.264;2023-06-19T02:04:51;19;19;
78063;PMS5003;67429;51.596;-3.264;2023-06-19T02:07:17;26;26;
78063;PMS5003;67429;51.596;-3.264;2023-06-19T02:09:42;21;21;
78063;PMS5003;67429;51.596;-3.264;2023-06-19T02:12:08;21;20;
78063;PMS5003;67429;51.596;-3.264;2023-06-19T02:14:33;19;19;
78063;PMS5003;67429;51.596;-3.264;2023-06-19T02:16:58;25;24;
78063;PMS5003;67429;51.596;-3.264;2023-06-19T02:19:24;25;23;
78063;PMS5003;67429;51.596;-3.264;2023-06-19T02:21:50;17;16;
78063;PMS5003;67429;51.596;-3.264;2023-06-19T02:24:15;26;22;
78063;PMS5003;67429;51.596;-3.264;2023-06-19T02:26:40;24;23;
78063;PMS5003;67429;51.596;-3.264;2023-06-19T02:29:06;22;20;
78063;PMS5003;67429;51.596;-3.264;2023-06-19T02:31:32;25;24;
78063;PMS5003;67429;51.596;-3.264;2023-06-19T02:33:57;26;26;
78063;PMS5003;67429;51.596;-3.264;2023-06-19T02:36:23;25;25;
78063;PMS5003;67429;51.596;-3.264;2023-06-19T02:38:49;22;22;
78063;PMS5003;67429;51.596;-3.264;2023-06-19T02:41:14;24;22;
78063;PMS5003;67429;51.596;-3.264;2023-06-19T02:43:40;21;21;
78063;PMS5003;67429;51.596;-3.264;2023-06-19T02:46:05;23;22;
78063;PMS5003;67429;51.596;-3.264;2023-06-19T02:48:31;20;19;
78063;PMS5003;67429;51.596;-3.264;2023-06-19T02:50:56;20;20;
78063;PMS5003;67429;51.596;-3.264;2023-06-19T02:53:22;22;22;
78063;PMS5003;67429;51.596;-3.264;2023-06-19T02:55:47;24;22;
78063;PMS5003;67429;51.596;-3.264;2023-06-19T02:58:12;23;22;
78063;PMS5003;67429;51.596;-3.264;2023-06-19T03:00:38;20;19;
78063;PMS5003;67429;51.596;-3.264;2023-06-19T03:03:03;19;19;
78063;PMS5003;67429;51.596;-3.264;2023-06-19T03:05:28;20;20;
78063;PMS5003;67429;51.596;-3.264;2023-06-19T03:07:54;15;15;
78063;PMS5003;67429;51.596;-3.264;2023-06-19T03:10:19;17;16;
78063;PMS5003;67429;51.596;-3.264;2023-06-19T03:12:45;21;18;
78063;PMS5003;67429;51.596;-3.264;2023-06-19T03:15:10;21;20;
78063;PMS5003;67429;51.596;-3.264;2023-06-19T03:17:36;18;17;
78063;PMS5003;67429;51.596;-3.264;2023-06-19T03:20:01;16;16;
78063;PMS5003;67429;51.596;-3.264;2023-06-19T03:22:26;17;17;
78063;PMS5003;67429;51.596;-3.264;2023-06-19T03:24:51;20;20;
78063;PMS5003;67429;51.596;-3.264;2023-06-19T03:27:17;19;18;
78063;PMS5003;67429;51.596;-3.264;2023-06-19T03:29:42;21;21;
78063;PMS5003;67429;51.596;-3.264;2023-06-19T03:32:07;17;17;
78063;PMS5003;67429;51.596;-3.264;2023-06-19T03:34:33;16;15;
78063;PMS5003;67429;51.596;-3.264;2023-06-19T03:36:58;19;19;
78063;PMS5003;67429;51.596;-3.264;2023-06-19T03:39:24;20;18;
78063;PMS5003;67429;51.596;-3.264;2023-06-19T03:41:55;15;14;
78063;PMS5003;67429;51.596;-3.264;2023-06-19T03:44:15;23;22;
78063;PMS5003;67429;51.596;-3.264;2023-06-19T03:46:46;22;21;
78063;PMS5003;67429;51.596;-3.264;2023-06-19T03:49:06;20;20;
78063;PMS5003;67429;51.596;-3.264;2023-06-19T03:51:32;20;18;
78063;PMS5003;67429;51.596;-3.264;2023-06-19T03:53:57;16;15;
78063;PMS5003;67429;51.596;-3.264;2023-06-19T03:56:22;18;17;
78063;PMS5003;67429;51.596;-3.264;2023-06-19T03:58:48;19;17;
78063;PMS5003;67429;51.596;-3.264;2023-06-19T04:01:13;17;17;
78063;PMS5003;67429;51.596;-3.264;2023-06-19T04:03:39;20;19;
78063;PMS5003;67429;51.596;-3.264;2023-06-19T04:06:04;17;17;
78063;PMS5003;67429;51.596;-3.264;2023-06-19T04:08:29;19;17;
78063;PMS5003;67429;51.596;-3.264;2023-06-19T04:10:55;20;20;
78063;PMS5003;67429;51.596;-3.264;2023-06-19T04:13:20;15;15;
78063;PMS5003;67429;51.596;-3.264;2023-06-19T04:15:45;19;18;
78063;PMS5003;67429;51.596;-3.264;2023-06-19T04:18:11;19;18;
78063;PMS5003;67429;51.596;-3.264;2023-06-19T04:20:36;20;19;
78063;PMS5003;67429;51.596;-3.264;2023-06-19T04:23:02;18;16;
78063;PMS5003;67429;51.596;-3.264;2023-06-19T04:25:27;16;16;
78063;PMS5003;67429;51.596;-3.264;2023-06-19T04:27:52;14;14;
78063;PMS5003;67429;51.596;-3.264;2023-06-19T04:30:18;17;17;
78063;PMS5003;67429;51.596;-3.264;2023-06-19T04:32:43;14;13;
78063;PMS5003;67429;51.596;-3.264;2023-06-19T04:35:09;14;14;
78063;PMS5003;67429;51.596;-3.264;2023-06-19T04:37:35;18;17;
78063;PMS5003;67429;51.596;-3.264;2023-06-19T04:40:00;15;15;
78063;PMS5003;67429;51.596;-3.264;2023-06-19T04:42:25;13;13;
78063;PMS5003;67429;51.596;-3.264;2023-06-19T04:44:51;17;16;
78063;PMS5003;67429;51.596;-3.264;2023-06-19T04:47:17;16;15;
78063;PMS5003;67429;51.596;-3.264;2023-06-19T04:49:42;17;17;
78063;PMS5003;67429;51.596;-3.264;2023-06-19T04:52:07;18;17;
78063;PMS5003;67429;51.596;-3.264;2023-06-19T04:54:33;15;14;
78063;PMS5003;67429;51.596;-3.264;2023-06-19T04:56:58;14;14;
78063;PMS5003;67429;51.596;-3.264;2023-06-19T04:59:24;14;13;
78063;PMS5003;67429;51.596;-3.264;2023-06-19T05:01:49;13;13;
78063;PMS5003;67429;51.596;-3.264;2023-06-19T05:04:14;12;12;
78063;PMS5003;67429;51.596;-3.264;2023-06-19T05:06:40;14;13;
78063;PMS5003;67429;51.596;-3.264;2023-06-19T05:09:05;13;12;
78063;PMS5003;67429;51.596;-3.264;2023-06-19T05:11:31;12;12;
78063;PMS5003;67429;51.596;-3.264;2023-06-19T05:13:56;13;12;
78063;PMS5003;67429;51.596;-3.264;2023-06-19T05:16:22;9;9;
78063;PMS5003;67429;51.596;-3.264;2023-06-19T05:18:47;11;11;
78063;PMS5003;67429;51.596;-3.264;2023-06-19T05:21:13;10;9;
78063;PMS5003;67429;51.596;-3.264;2023-06-19T05:23:39;12;12;
78063;PMS5003;67429;51.596;-3.264;2023-06-19T05:26:04;11;11;
78063;PMS5003;67429;51.596;-3.264;2023-06-19T05:28:30;12;12;
78063;PMS5003;67429;51.596;-3.264;2023-06-19T05:31:00;12;11;
78063;PMS5003;67429;51.596;-3.264;2023-06-19T05:33:21;11;10;
78063;PMS5003;67429;51.596;-3.264;2023-06-19T05:35:47;12;12;
78063;PMS5003;67429;51.596;-3.264;2023-06-19T05:38:12;13;12;
78063;PMS5003;67429;51.596;-3.264;2023-06-19T05:40:37;13;12;
78063;PMS5003;67429;51.596;-3.264;2023-06-19T05:43:03;12;11;
78063;PMS5003;67429;51.596;-3.264;2023-06-19T05:45:28;13;13;
78063;PMS5003;67429;51.596;-3.264;2023-06-19T05:47:53;15;14;
78063;PMS5003;67429;51.596;-3.264;2023-06-19T05:50:19;12;12;
78063;PMS5003;67429;51.596;-3.264;2023-06-19T05:52:44;13;13;
78063;PMS5003;67429;51.596;-3.264;2023-06-19T05:55:10;9;9;
78063;PMS5003;67429;51.596;-3.264;2023-06-19T05:57:35;10;9;
78063;PMS5003;67429;51.596;-3.264;2023-06-19T06:00:00;11;11;
78063;PMS5003;67429;51.596;-3.264;2023-06-19T06:02:26;13;13;
78063;PMS5003;67429;51.596;-3.264;2023-06-19T06:04:51;13;12;
78063;PMS5003;67429;51.596;-3.264;2023-06-19T06:07:17;13;13;
78063;PMS5003;67429;51.596;-3.264;2023-06-19T06:09:42;12;12;
78063;PMS5003;67429;51.596;-3.264;2023-06-19T06:12:08;12;11;
78063;PMS5003;67429;51.596;-3.264;2023-06-19T06:14:34;11;10;
78063;PMS5003;67429;51.596;-3.264;2023-06-19T06:16:59;12;10;
78063;PMS5003;67429;51.596;-3.264;2023-06-19T06:19:26;9;9;
78063;PMS5003;67429;51.596;-3.264;2023-06-19T06:21:50;12;12;
78063;PMS5003;67429;51.596;-3.264;2023-06-19T06:24:15;10;9;
78063;PMS5003;67429;51.596;-3.264;2023-06-19T06:26:40;9;8;
78063;PMS5003;67429;51.596;-3.264;2023-06-19T06:29:06;9;9;
78063;PMS5003;67429;51.596;-3.264;2023-06-19T06:31:31;11;11;
78063;PMS5003;67429;51.596;-3.264;2023-06-19T06:33:57;12;12;
78063;PMS5003;67429;51.596;-3.264;2023-06-19T06:36:23;13;13;
78063;PMS5003;67429;51.596;-3.264;2023-06-19T06:38:48;14;12;
78063;PMS5003;67429;51.596;-3.264;2023-06-19T06:41:13;11;11;
78063;PMS5003;67429;51.596;-3.264;2023-06-19T06:43:40;9;9;
78063;PMS5003;67429;51.596;-3.264;2023-06-19T06:46:04;12;12;
78063;PMS5003;67429;51.596;-3.264;2023-06-19T06:48:29;12;11;
78063;PMS5003;67429;51.596;-3.264;2023-06-19T06:50:55;11;11;
78063;PMS5003;67429;51.596;-3.264;2023-06-19T06:53:20;12;12;
78063;PMS5003;67429;51.596;-3.264;2023-06-19T06:55:46;11;11;
78063;PMS5003;67429;51.596;-3.264;2023-06-19T06:58:11;10;10;
78063;PMS5003;67429;51.596;-3.264;2023-06-19T07:00:37;11;11;
78063;PMS5003;67429;51.596;-3.264;2023-06-19T07:03:02;9;9;
78063;PMS5003;67429;51.596;-3.264;2023-06-19T07:05:27;13;13;
78063;PMS5003;67429;51.596;-3.264;2023-06-19T07:07:53;8;8;
78063;PMS5003;67429;51.596;-3.264;2023-06-19T07:10:18;11;10;
78063;PMS5003;67429;51.596;-3.264;2023-06-19T07:12:44;13;13;
78063;PMS5003;67429;51.596;-3.264;2023-06-19T07:15:09;11;10;
78063;PMS5003;67429;51.596;-3.264;2023-06-19T07:17:34;11;11;
78063;PMS5003;67429;51.596;-3.264;2023-06-19T07:20:00;10;10;
78063;PMS5003;67429;51.596;-3.264;2023-06-19T07:22:25;7;7;
78063;PMS5003;67429;51.596;-3.264;2023-06-19T07:24:51;10;10;
78063;PMS5003;67429;51.596;-3.264;2023-06-19T07:27:16;7;6;
78063;PMS5003;67429;51.596;-3.264;2023-06-19T07:29:43;9;8;
78063;PMS5003;67429;51.596;-3.264;2023-06-19T07:32:07;9;8;
78063;PMS5003;67429;51.596;-3.264;2023-06-19T07:34:32;7;7;
78063;PMS5003;67429;51.596;-3.264;2023-06-19T07:36:57;7;7;
78063;PMS5003;67429;51.596;-3.264;2023-06-19T07:39:23;6;6;
78063;PMS5003;67429;51.596;-3.264;2023-06-19T07:41:48;7;7;
78063;PMS5003;67429;51.596;-3.264;2023-06-19T07:44:14;7;7;
78063;PMS5003;67429;51.596;-3.264;2023-06-19T07:46:39;8;8;
78063;PMS5003;67429;51.596;-3.264;2023-06-19T07:49:05;6;6;
78063;PMS5003;67429;51.596;-3.264;2023-06-19T07:51:30;7;7;
78063;PMS5003;67429;51.596;-3.264;2023-06-19T07:53:56;7;7;
78063;PMS5003;67429;51.596;-3.264;2023-06-19T07:56:21;8;6;
78063;PMS5003;67429;51.596;-3.264;2023-06-19T07:58:47;8;8;
78063;PMS5003;67429;51.596;-3.264;2023-06-19T08:01:12;9;9;
78063;PMS5003;67429;51.596;-3.264;2023-06-19T08:03:37;6;6;
78063;PMS5003;67429;51.596;-3.264;2023-06-19T08:06:03;7;7;
78063;PMS5003;67429;51.596;-3.264;2023-06-19T08:08:29;7;6;
78063;PMS5003;67429;51.596;-3.264;2023-06-19T08:10:54;8;8;
78063;PMS5003;67429;51.596;-3.264;2023-06-19T08:13:19;5;5;
78063;PMS5003;67429;51.596;-3.264;2023-06-19T08:15:45;7;7;
78063;PMS5003;67429;51.596;-3.264;2023-06-19T08:18:10;5;5;
78063;PMS5003;67429;51.596;-3.264;2023-06-19T08:20:36;6;6;
78063;PMS5003;67429;51.596;-3.264;2023-06-19T08:23:01;7;7;
78063;PMS5003;67429;51.596;-3.264;2023-06-19T08:25:27;7;7;
78063;PMS5003;67429;51.596;-3.264;2023-06-19T08:27:52;6;6;
78063;PMS5003;67429;51.596;-3.264;2023-06-19T08:30:17;5;5;
78063;PMS5003;67429;51.596;-3.264;2023-06-19T08:32:43;6;6;
78063;PMS5003;67429;51.596;-3.264;2023-06-19T08:35:08;4;4;
78063;PMS5003;67429;51.596;-3.264;2023-06-19T08:37:34;6;5;
78063;PMS5003;67429;51.596;-3.264;2023-06-19T08:39:59;8;7;
78063;PMS5003;67429;51.596;-3.264;2023-06-19T08:42:24;7;7;
78063;PMS5003;67429;51.596;-3.264;2023-06-19T08:44:50;7;7;
78063;PMS5003;67429;51.596;-3.264;2023-06-19T08:47:16;8;7;
78063;PMS5003;67429;51.596;-3.264;2023-06-19T08:49:41;5;4;
78063;PMS5003;67429;51.596;-3.264;2023-06-19T08:52:07;7;7;
78063;PMS5003;67429;51.596;-3.264;2023-06-19T08:54:32;5;5;
78063;PMS5003;67429;51.596;-3.264;2023-06-19T08:56:59;6;5;
78063;PMS5003;67429;51.596;-3.264;2023-06-19T08:59:23;6;6;
78063;PMS5003;67429;51.596;-3.264;2023-06-19T09:01:49;5;5;
78063;PMS5003;67429;51.596;-3.264;2023-06-19T09:04:13;3;3;
78063;PMS5003;67429;51.596;-3.264;2023-06-19T09:06:46;6;5;
78063;PMS5003;67429;51.596;-3.264;2023-06-19T09:09:04;6;6;
78063;PMS5003;67429;51.596;-3.264;2023-06-19T09:11:30;5;5;
78063;PMS5003;67429;51.596;-3.264;2023-06-19T09:13:56;4;4;
78063;PMS5003;67429;51.596;-3.264;2023-06-19T09:16:21;7;7;
78063;PMS5003;67429;51.596;-3.264;2023-06-19T09:18:47;5;5;
78063;PMS5003;67429;51.596;-3.264;2023-06-19T09:21:15;4;3;
78063;PMS5003;67429;51.596;-3.264;2023-06-19T09:23:37;6;5;
78063;PMS5003;67429;51.596;-3.264;2023-06-19T09:26:02;5;4;
78063;PMS5003;67429;51.596;-3.264;2023-06-19T09:28:28;5;4;
78063;PMS5003;67429;51.596;-3.264;2023-06-19T09:30:54;3;3;
78063;PMS5003;67429;51.596;-3.264;2023-06-19T09:33:18;3;3;
78063;PMS5003;67429;51.596;-3.264;2023-06-19T09:35:44;4;4;
78063;PMS5003;67429;51.596;-3.264;2023-06-19T09:38:09;3;3;
78063;PMS5003;67429;51.596;-3.264;2023-06-19T09:40:34;4;3;
78063;PMS5003;67429;51.596;-3.264;2023-06-19T09:43:00;3;3;
78063;PMS5003;67429;51.596;-3.264;2023-06-19T09:45:25;4;4;
78063;PMS5003;67429;51.596;-3.264;2023-06-19T09:47:51;2;2;
78063;PMS5003;67429;51.596;-3.264;2023-06-19T09:50:16;5;5;
78063;PMS5003;67429;51.596;-3.264;2023-06-19T09:52:42;5;4;
78063;PMS5003;67429;51.596;-3.264;2023-06-19T09:55:08;3;3;
78063;PMS5003;67429;51.596;-3.264;2023-06-19T09:57:32;2;2;
78063;PMS5003;67429;51.596;-3.264;2023-06-19T09:59:58;3;3;
78063;PMS5003;67429;51.596;-3.264;2023-06-19T10:02:24;3;3;
78063;PMS5003;67429;51.596;-3.264;2023-06-19T10:04:49;5;4;
78063;PMS5003;67429;51.596;-3.264;2023-06-19T10:07:16;3;3;
78063;PMS5003;67429;51.596;-3.264;2023-06-19T10:09:40;4;4;
78063;PMS5003;67429;51.596;-3.264;2023-06-19T10:14:30;3;3;
78063;PMS5003;67429;51.596;-3.264;2023-06-19T10:16:56;5;5;
78063;PMS5003;67429;51.596;-3.264;2023-06-19T10:19:21;4;3;
78063;PMS5003;67429;51.596;-3.264;2023-06-19T10:21:47;1;1;
78063;PMS5003;67429;51.596;-3.264;2023-06-19T10:24:13;4;3;
78063;PMS5003;67429;51.596;-3.264;2023-06-19T10:26:37;2;2;
78063;PMS5003;67429;51.596;-3.264;2023-06-19T10:31:28;3;3;
78063;PMS5003;67429;51.596;-3.264;2023-06-19T10:33:54;3;3;
78063;PMS5003;67429;51.596;-3.264;2023-06-19T10:36:19;3;3;
78063;PMS5003;67429;51.596;-3.264;2023-06-19T10:38:44;4;4;
78063;PMS5003;67429;51.596;-3.264;2023-06-19T10:41:14;4;4;
78063;PMS5003;67429;51.596;-3.264;2023-06-19T10:43:35;4;4;
78063;PMS5003;67429;51.596;-3.264;2023-06-19T10:46:02;5;4;
78063;PMS5003;67429;51.596;-3.264;2023-06-19T10:48:26;2;2;
78063;PMS5003;67429;51.596;-3.264;2023-06-19T10:50:51;4;4;
78063;PMS5003;67429;51.596;-3.264;2023-06-19T10:53:23;4;4;
78063;PMS5003;67429;51.596;-3.264;2023-06-19T10:55:42;4;4;
78063;PMS5003;67429;51.596;-3.264;2023-06-19T10:58:07;5;3;
78063;PMS5003;67429;51.596;-3.264;2023-06-19T11:00:33;4;3;
78063;PMS5003;67429;51.596;-3.264;2023-06-19T11:02:58;4;4;
78063;PMS5003;67429;51.596;-3.264;2023-06-19T11:05:24;3;3;
78063;PMS5003;67429;51.596;-3.264;2023-06-19T11:07:50;2;2;
78063;PMS5003;67429;51.596;-3.264;2023-06-19T11:10:18;3;3;
78063;PMS5003;67429;51.596;-3.264;2023-06-19T11:12:40;5;5;
78063;PMS5003;67429;51.596;-3.264;2023-06-19T11:15:06;5;4;
78063;PMS5003;67429;51.596;-3.264;2023-06-19T11:17:31;4;4;
78063;PMS5003;67429;51.596;-3.264;2023-06-19T11:19:56;3;3;
78063;PMS5003;67429;51.596;-3.264;2023-06-19T11:22:21;2;2;
78063;PMS5003;67429;51.596;-3.264;2023-06-19T11:24:47;3;3;
78063;PMS5003;67429;51.596;-3.264;2023-06-19T11:27:18;3;3;
78063;PMS5003;67429;51.596;-3.264;2023-06-19T11:29:37;3;3;
78063;PMS5003;67429;51.596;-3.264;2023-06-19T11:32:05;1;1;
78063;PMS5003;67429;51.596;-3.264;2023-06-19T11:34:30;5;5;
78063;PMS5003;67429;51.596;-3.264;2023-06-19T11:36:53;3;3;
78063;PMS5003;67429;51.596;-3.264;2023-06-19T11:39:19;4;4;
78063;PMS5003;67429;51.596;-3.264;2023-06-19T11:41:44;3;2;
78063;PMS5003;67429;51.596;-3.264;2023-06-19T11:44:09;5;4;
78063;PMS5003;67429;51.596;-3.264;2023-06-19T11:46:35;2;2;
78063;PMS5003;67429;51.596;-3.264;2023-06-19T11:49:09;4;3;
78063;PMS5003;67429;51.596;-3.264;2023-06-19T11:51:25;3;3;
78063;PMS5003;67429;51.596;-3.264;2023-06-19T11:53:51;2;2;
78063;PMS5003;67429;51.596;-3.264;2023-06-19T11:56:16;2;2;
78063;PMS5003;67429;51.596;-3.264;2023-06-19T11:58:41;4;4;
78063;PMS5003;67429;51.596;-3.264;2023-06-19T12:01:07;2;2;
78063;PMS5003;67429;51.596;-3.264;2023-06-19T12:03:33;3;3;
78063;PMS5003;67429;51.596;-3.264;2023-06-19T12:05:58;4;3;
78063;PMS5003;67429;51.596;-3.264;2023-06-19T12:08:23;1;1;
78063;PMS5003;67429;51.596;-3.264;2023-06-19T12:10:48;3;3;
78063;PMS5003;67429;51.596;-3.264;2023-06-19T12:13:14;2;2;
78063;PMS5003;67429;51.596;-3.264;2023-06-19T12:15:39;4;2;
78063;PMS5003;67429;51.596;-3.264;2023-06-19T12:18:05;3;3;
78063;PMS5003;67429;51.596;-3.264;2023-06-19T12:20:30;3;3;
78063;PMS5003;67429;51.596;-3.264;2023-06-19T12:22:55;3;3;
78063;PMS5003;67429;51.596;-3.264;2023-06-19T12:25:21;3;3;
78063;PMS5003;67429;51.596;-3.264;2023-06-19T12:27:46;2;2;
78063;PMS5003;67429;51.596;-3.264;2023-06-19T12:30:11;2;2;
78063;PMS5003;67429;51.596;-3.264;2023-06-19T12:32:37;2;2;
78063;PMS5003;67429;51.596;-3.264;2023-06-19T12:35:02;4;4;
78063;PMS5003;67429;51.596;-3.264;2023-06-19T12:37:27;3;3;
78063;PMS5003;67429;51.596;-3.264;2023-06-19T12:39:53;3;3;
78063;PMS5003;67429;51.596;-3.264;2023-06-19T12:42:18;1;1;
78063;PMS5003;67429;51.596;-3.264;2023-06-19T12:44:43;2;2;
78063;PMS5003;67429;51.596;-3.264;2023-06-19T12:47:09;5;4;
78063;PMS5003;67429;51.596;-3.264;2023-06-19T12:49:34;3;3;
78063;PMS5003;67429;51.596;-3.264;2023-06-19T12:52:00;4;4;
78063;PMS5003;67429;51.596;-3.264;2023-06-19T12:54:25;2;2;
78063;PMS5003;67429;51.596;-3.264;2023-06-19T12:56:50;3;3;
78063;PMS5003;67429;51.596;-3.264;2023-06-19T12:59:16;3;3;
78063;PMS5003;67429;51.596;-3.264;2023-06-19T13:01:41;3;3;
78063;PMS5003;67429;51.596;-3.264;2023-06-19T13:04:06;4;4;
78063;PMS5003;67429;51.596;-3.264;2023-06-19T13:06:32;3;3;
78063;PMS5003;67429;51.596;-3.264;2023-06-19T13:08:57;4;3;
78063;PMS5003;67429;51.596;-3.264;2023-06-19T13:11:22;1;1;
78063;PMS5003;67429;51.596;-3.264;2023-06-19T13:13:48;2;2;
78063;PMS5003;67429;51.596;-3.264;2023-06-19T13:16:13;5;4;
78063;PMS5003;67429;51.596;-3.264;2023-06-19T13:18:38;1;1;
78063;PMS5003;67429;51.596;-3.264;2023-06-19T13:21:04;3;3;
78063;PMS5003;67429;51.596;-3.264;2023-06-19T13:23:30;4;3;
78063;PMS5003;67429;51.596;-3.264;2023-06-19T13:25:54;2;2;
78063;PMS5003;67429;51.596;-3.264;2023-06-19T13:28:20;3;3;
78063;PMS5003;67429;51.596;-3.264;2023-06-19T13:30:45;1;1;
78063;PMS5003;67429;51.596;-3.264;2023-06-19T13:33:10;4;4;
78063;PMS5003;67429;51.596;-3.264;2023-06-19T13:35:36;2;2;
78063;PMS5003;67429;51.596;-3.264;2023-06-19T13:38:01;3;3;
78063;PMS5003;67429;51.596;-3.264;2023-06-19T13:40:26;4;4;
78063;PMS5003;67429;51.596;-3.264;2023-06-19T13:42:52;3;3;
78063;PMS5003;67429;51.596;-3.264;2023-06-19T13:45:17;3;3;
78063;PMS5003;67429;51.596;-3.264;2023-06-19T13:47:42;4;4;
78063;PMS5003;67429;51.596;-3.264;2023-06-19T13:50:08;3;3;
78063;PMS5003;67429;51.596;-3.264;2023-06-19T13:52:33;3;3;
78063;PMS5003;67429;51.596;-3.264;2023-06-19T13:54:58;3;3;
78063;PMS5003;67429;51.596;-3.264;2023-06-19T13:57:24;4;4;
78063;PMS5003;67429;51.596;-3.264;2023-06-19T13:59:49;3;3;
78063;PMS5003;67429;51.596;-3.264;2023-06-19T14:02:14;3;3;
78063;PMS5003;67429;51.596;-3.264;2023-06-19T14:04:40;3;3;
78063;PMS5003;67429;51.596;-3.264;2023-06-19T14:07:06;3;3;
78063;PMS5003;67429;51.596;-3.264;2023-06-19T14:09:30;4;4;
78063;PMS5003;67429;51.596;-3.264;2023-06-19T14:11:56;4;4;
78063;PMS5003;67429;51.596;-3.264;2023-06-19T14:14:21;3;2;
78063;PMS5003;67429;51.596;-3.264;2023-06-19T14:16:46;4;4;
78063;PMS5003;67429;51.596;-3.264;2023-06-19T14:19:12;3;3;
78063;PMS5003;67429;51.596;-3.264;2023-06-19T14:21:37;4;4;
78063;PMS5003;67429;51.596;-3.264;2023-06-19T14:24:03;3;3;
78063;PMS5003;67429;51.596;-3.264;2023-06-19T14:26:28;4;4;
78063;PMS5003;67429;51.596;-3.264;2023-06-19T14:28:53;4;3;
78063;PMS5003;67429;51.596;-3.264;2023-06-19T14:31:19;3;3;
78063;PMS5003;67429;51.596;-3.264;2023-06-19T14:33:44;5;5;
78063;PMS5003;67429;51.596;-3.264;2023-06-19T14:36:10;4;4;
78063;PMS5003;67429;51.596;-3.264;2023-06-19T14:38:35;2;2;
78063;PMS5003;67429;51.596;-3.264;2023-06-19T14:41:01;4;4;
78063;PMS5003;67429;51.596;-3.264;2023-06-19T14:43:25;2;2;
78063;PMS5003;67429;51.596;-3.264;2023-06-19T14:45:51;3;3;
78063;PMS5003;67429;51.596;-3.264;2023-06-19T14:48:16;2;2;
78063;PMS5003;67429;51.596;-3.264;2023-06-19T14:50:42;2;2;
78063;PMS5003;67429;51.596;-3.264;2023-06-19T14:53:07;4;3;
78063;PMS5003;67429;51.596;-3.264;2023-06-19T14:55:32;1;1;
78063;PMS5003;67429;51.596;-3.264;2023-06-19T14:57:57;4;4;
78063;PMS5003;67429;51.596;-3.264;2023-06-19T15:00:23;3;3;
78063;PMS5003;67429;51.596;-3.264;2023-06-19T15:02:48;2;2;
78063;PMS5003;67429;51.596;-3.264;2023-06-19T15:05:13;3;3;
78063;PMS5003;67429;51.596;-3.264;2023-06-19T15:07:39;2;2;
78063;PMS5003;67429;51.596;-3.264;2023-06-19T15:10:04;3;3;
78063;PMS5003;67429;51.596;-3.264;2023-06-19T15:12:29;2;2;
78063;PMS5003;67429;51.596;-3.264;2023-06-19T15:14:55;2;2;
78063;PMS5003;67429;51.596;-3.264;2023-06-19T15:17:20;3;3;
78063;PMS5003;67429;51.596;-3.264;2023-06-19T15:19:45;3;3;
78063;PMS5003;67429;51.596;-3.264;2023-06-19T15:22:11;3;3;
78063;PMS5003;67429;51.596;-3.264;2023-06-19T15:24:36;3;3;
78063;PMS5003;67429;51.596;-3.264;2023-06-19T15:27:02;3;3;
78063;PMS5003;67429;51.596;-3.264;2023-06-19T15:29:27;4;4;
78063;PMS5003;67429;51.596;-3.264;2023-06-19T15:31:52;4;4;
78063;PMS5003;67429;51.596;-3.264;2023-06-19T15:34:18;3;3;
78063;PMS5003;67429;51.596;-3.264;2023-06-19T15:36:43;3;3;
78063;PMS5003;67429;51.596;-3.264;2023-06-19T15:39:08;5;4;
78063;PMS5003;67429;51.596;-3.264;2023-06-19T15:41:34;5;5;
78063;PMS5003;67429;51.596;-3.264;2023-06-19T15:43:59;3;3;
78063;PMS5003;67429;51.596;-3.264;2023-06-19T15:46:24;4;4;
78063;PMS5003;67429;51.596;-3.264;2023-06-19T15:48:50;3;3;
78063;PMS5003;67429;51.596;-3.264;2023-06-19T15:51:15;3;3;
78063;PMS5003;67429;51.596;-3.264;2023-06-19T15:53:40;4;4;
78063;PMS5003;67429;51.596;-3.264;2023-06-19T15:56:05;5;4;
78063;PMS5003;67429;51.596;-3.264;2023-06-19T15:58:31;2;2;
78063;PMS5003;67429;51.596;-3.264;2023-06-19T16:00:57;4;3;
78063;PMS5003;67429;51.596;-3.264;2023-06-19T16:03:22;5;5;
78063;PMS5003;67429;51.596;-3.264;2023-06-19T16:05:47;4;4;
78063;PMS5003;67429;51.596;-3.264;2023-06-19T16:08:12;3;3;
78063;PMS5003;67429;51.596;-3.264;2023-06-19T16:10:38;3;3;